Time;durP1;ratioP1;P1;durP2;ratioP2;P2;SDS_P1;SDS_P2;PMS_P1;PMS_P2;Temp;Humidity;BMP_temperature;BMP_pressure;BME280_temperature;BME280_humidity;BME280_pressure;Samples;Min_cycle;Max_cycle;Signal;HPM_P1;HPM_P2
2024/01/08 00:07:48;;;;;;;41.30;16.10;;;;;;;-10.52;64.46;101640.98;675330;1285;140088;-80
2024/01/08 00:22:52;;;;;;;38.20;14.10;;;;;;;-10.74;64.03;101635.45;677904;1268;140428;-80
2024/01/08 00:37:56;;;;;;;40.70;14.30;;;;;;;-10.83;64.14;101644.23;675679;1272;139398;-80
2024/01/08 00:53:00;;;;;;;51.50;16.50;;;;;;;-10.97;64.06;101657.45;677365;1272;139897;-80
2024/01/08 01:08:03;;;;;;;39.80;14.10;;;;;;;-10.94;64.09;101658.86;674130;1274;140710;-80
2024/01/08 01:23:07;;;;;;;33.30;13.90;;;;;;;-10.94;64.06;101669.00;674582;1275;139851;-80
2024/01/08 01:38:10;;;;;;;39.20;13.00;;;;;;;-11.00;64.24;101688.14;674148;1269;139631;-80
2024/01/08 01:53:14;;;;;;;33.00;11.50;;;;;;;-11.21;64.46;101698.95;676892;1273;139885;-79
2024/01/08 02:08:18;;;;;;;25.10;10.60;;;;;;;-11.12;63.93;101710.48;674932;1278;140944;-80
2024/01/08 02:23:22;;;;;;;35.60;13.40;;;;;;;-11.22;63.83;101713.14;672221;1275;140447;-81
2024/01/08 02:38:25;;;;;;;49.90;16.40;;;;;;;-11.19;63.93;101732.98;674091;1271;139584;-81
2024/01/08 02:53:29;;;;;;;34.20;12.70;;;;;;;-11.59;64.46;101754.22;673950;1272;139698;-82
2024/01/08 03:08:32;;;;;;;36.00;12.10;;;;;;;-11.74;64.37;101763.98;677213;1269;139949;-81
2024/01/08 03:23:36;;;;;;;32.80;12.10;;;;;;;-11.60;63.83;101759.98;675364;1272;140377;-80
2024/01/08 03:38:41;;;;;;;31.90;10.80;;;;;;;-11.55;63.60;101778.00;674211;1274;143756;-80
2024/01/08 03:53:44;;;;;;;48.80;14.50;;;;;;;-11.55;63.33;101799.27;675745;1275;140066;-80
2024/01/08 04:08:48;;;;;;;68.10;24.40;;;;;;;-11.64;63.04;101819.10;675796;1267;139338;-80
2024/01/08 04:23:52;;;;;;;42.20;15.80;;;;;;;-11.74;62.78;101826.27;677921;1266;139675;-80
2024/01/08 04:38:56;;;;;;;92.80;29.20;;;;;;;-11.85;62.77;101833.40;680031;1263;140372;-80
2024/01/08 04:54:00;;;;;;;44.10;17.80;;;;;;;-11.86;62.57;101843.16;675257;1263;139574;-81
2024/01/08 05:09:04;;;;;;;359.80;105.10;;;;;;;-11.90;62.44;101849.30;676741;1260;139445;-81
2024/01/08 05:24:08;;;;;;;42.30;18.60;;;;;;;-11.95;62.42;101860.45;674024;1262;139128;-80
2024/01/08 05:39:12;;;;;;;152.20;43.90;;;;;;;-12.00;62.45;101874.66;677097;1260;140793;-81
2024/01/08 05:54:16;;;;;;;83.00;31.00;;;;;;;-12.09;62.29;101886.05;675118;1266;140013;-80
2024/01/08 06:09:21;;;;;;;77.30;24.90;;;;;;;-12.31;62.24;101909.66;678531;1262;140452;-80
2024/01/08 06:24:25;;;;;;;65.00;22.90;;;;;;;-12.36;62.27;101919.10;676976;1261;140202;-80
2024/01/08 06:39:28;;;;;;;85.90;27.20;;;;;;;-12.42;62.17;101941.18;677482;1262;140249;-81
2024/01/08 06:54:32;;;;;;;57.50;20.10;;;;;;;-12.42;62.30;101956.19;677953;1263;139232;-80
2024/01/08 07:09:35;;;;;;;69.90;24.70;;;;;;;-12.38;62.27;101996.96;676774;1262;139936;-80
2024/01/08 07:24:43;;;;;;;98.30;34.40;;;;;;;-12.38;62.17;102015.00;672521;1270;192969;-81
2024/01/08 07:39:50;;;;;;;177.30;48.00;;;;;;;-12.31;62.06;102035.16;676612;1273;139603;-81
2024/01/08 07:54:54;;;;;;;72.00;25.50;;;;;;;-12.14;62.19;102037.55;679184;1271;139709;-80
2024/01/08 08:09:58;;;;;;;149.40;38.60;;;;;;;-11.77;62.40;102065.08;678619;1276;140499;-80
2024/01/08 08:25:03;;;;;;;92.60;26.50;;;;;;;-11.59;62.33;102085.40;682602;1260;140029;-81
2024/01/08 08:40:08;;;;;;;241.00;64.90;;;;;;;-11.42;62.25;102107.02;676150;1263;140317;-80
2024/01/08 08:55:12;;;;;;;232.30;71.50;;;;;;;-11.01;62.37;102114.20;679092;1262;141208;-81
2024/01/08 09:10:17;;;;;;;60.20;20.40;;;;;;;-10.63;62.49;102127.48;676170;1263;138950;-81
2024/01/08 09:25:21;;;;;;;57.50;21.90;;;;;;;-9.55;63.43;102133.51;679001;1263;139573;-81
2024/01/08 09:40:25;;;;;;;192.20;54.90;;;;;;;-4.44;66.16;102140.96;677620;1264;139645;-83
2024/01/08 09:55:33;;;;;;;74.90;27.10;;;;;;;-1.22;62.08;102140.90;677456;1262;138672;-84
2024/01/08 10:10:37;;;;;;;83.40;32.40;;;;;;;-0.39;58.53;102141.78;678591;1257;137935;-83
2024/01/08 10:25:49;;;;;;;75.30;28.90;;;;;;;-0.58;55.91;102143.73;678955;1262;139943;-81
2024/01/08 10:40:55;;;;;;;116.20;44.10;;;;;;;-0.80;54.56;102152.22;677384;1263;140347;-81
2024/01/08 10:55:59;;;;;;;53.80;24.10;;;;;;;-0.73;53.44;102156.27;679867;1257;139408;-81
2024/01/08 11:11:09;;;;;;;73.40;28.20;;;;;;;-1.10;52.43;102154.58;676646;1261;138028;-81
2024/01/08 11:26:20;;;;;;;78.90;28.90;;;;;;;-1.77;51.72;102148.25;679224;1261;139509;-81
2024/01/08 11:41:27;;;;;;;212.70;69.40;;;;;;;-2.49;51.32;102153.74;675377;1263;138301;-82
2024/01/08 11:56:31;;;;;;;397.70;126.10;;;;;;;-3.51;51.99;102165.00;676803;1262;139046;-80
2024/01/08 12:11:36;;;;;;;165.60;50.70;;;;;;;-5.13;52.90;102172.39;679408;1262;138995;-81
2024/01/08 12:26:43;;;;;;;86.30;27.60;;;;;;;-5.87;53.69;102198.73;679408;1276;139146;-81
2024/01/08 12:41:47;;;;;;;80.70;29.20;;;;;;;-5.95;54.43;102200.52;677189;1259;138997;-81
2024/01/08 12:56:51;;;;;;;104.20;28.00;;;;;;;-6.03;55.12;102199.59;678986;1259;139942;-81
2024/01/08 13:11:56;;;;;;;114.30;34.10;;;;;;;-6.07;55.58;102205.52;678549;1257;139302;-80
2024/01/08 13:27:00;;;;;;;96.30;29.40;;;;;;;-6.20;56.10;102217.98;679908;1260;140573;-79
2024/01/08 13:42:06;;;;;;;113.10;34.20;;;;;;;-6.31;57.01;102231.63;678698;1262;140252;-81
2024/01/08 13:57:10;;;;;;;140.30;45.30;;;;;;;-6.44;57.49;102244.91;681339;1262;139558;-80
2024/01/08 14:12:14;;;;;;;298.30;120.60;;;;;;;-6.38;58.38;102252.98;679196;1260;139882;-81
2024/01/08 14:27:23;;;;;;;113.30;35.40;;;;;;;-5.71;59.01;102250.52;677644;1262;139825;-80
2024/01/08 14:42:28;;;;;;;234.30;72.60;;;;;;;-5.85;58.36;102270.14;679073;1260;139151;-80
2024/01/08 14:57:33;;;;;;;213.60;65.00;;;;;;;-6.78;58.69;102282.02;675288;1260;139945;-80
2024/01/08 15:12:36;;;;;;;179.30;52.50;;;;;;;-7.21;59.24;102298.50;674281;1258;139663;-81
2024/01/08 15:27:40;;;;;;;123.10;37.40;;;;;;;-7.64;59.48;102300.93;679797;1275;139357;-81
2024/01/08 15:42:43;;;;;;;260.90;89.10;;;;;;;-7.74;59.66;102307.34;679729;1259;139872;-81
2024/01/08 15:57:48;;;;;;;660.30;188.00;;;;;;;-7.53;60.03;102314.55;680355;1262;140806;-81
2024/01/08 16:12:53;;;;;;;408.90;123.00;;;;;;;-7.97;60.13;102336.45;680253;1259;139493;-80
2024/01/08 16:27:58;;;;;;;244.10;59.20;;;;;;;-8.15;60.12;102359.81;682274;1263;140091;-81
2024/01/08 16:43:03;;;;;;;138.70;43.70;;;;;;;-8.39;60.31;102377.27;678204;1260;139636;-81
2024/01/08 16:58:07;;;;;;;131.50;40.10;;;;;;;-8.56;60.62;102396.06;681960;1262;139352;-81
2024/01/08 17:13:11;;;;;;;303.30;78.00;;;;;;;-8.78;60.73;102403.33;682060;1262;140143;-81
2024/01/08 17:28:15;;;;;;;246.10;63.40;;;;;;;-8.84;60.89;102421.98;681097;1262;140229;-80
2024/01/08 17:43:22;;;;;;;148.40;43.80;;;;;;;-9.07;60.90;102438.35;681379;1262;140899;-80
2024/01/08 17:58:31;;;;;;;375.40;115.50;;;;;;;-9.36;60.83;102446.84;681701;1259;139994;-80
2024/01/08 18:13:37;;;;;;;417.80;123.30;;;;;;;-9.54;60.69;102457.00;681552;1268;139804;-80
2024/01/08 18:28:41;;;;;;;290.50;81.80;;;;;;;-9.90;60.77;102449.33;681447;1259;141224;-80
2024/01/08 18:43:45;;;;;;;391.60;117.80;;;;;;;-10.01;61.09;102452.52;680696;1264;141468;-80
2024/01/08 18:58:50;;;;;;;459.70;128.10;;;;;;;-10.01;61.12;102472.49;680948;1259;141136;-81
2024/01/08 19:13:54;;;;;;;485.70;143.20;;;;;;;-10.11;61.11;102489.46;681500;1262;140357;-81
2024/01/08 19:28:59;;;;;;;485.50;148.10;;;;;;;-10.21;61.10;102490.30;680324;1262;162501;-81
2024/01/08 19:44:04;;;;;;;324.10;93.90;;;;;;;-10.13;61.05;102487.70;681283;1262;140414;-82
2024/01/08 19:59:08;;;;;;;506.80;144.00;;;;;;;-10.50;60.66;102498.17;680434;1262;141030;-81
2024/01/08 20:14:13;;;;;;;728.40;245.70;;;;;;;-10.54;60.87;102506.86;679548;1265;140298;-81
2024/01/08 20:29:20;;;;;;;401.00;107.50;;;;;;;-10.46;60.81;102506.25;672962;1260;141438;-81
2024/01/08 20:44:35;;;;;;;396.50;114.20;;;;;;;-10.49;61.04;102502.09;678312;1262;141273;-82
2024/01/08 20:59:41;;;;;;;445.30;134.20;;;;;;;-10.48;61.22;102507.56;681859;1262;141488;-82
2024/01/08 21:14:47;;;;;;;341.20;103.70;;;;;;;-10.50;60.97;102502.39;676434;1262;140393;-81
2024/01/08 21:29:51;;;;;;;347.90;103.40;;;;;;;-10.75;60.76;102497.14;675158;1262;140596;-80
2024/01/08 21:44:56;;;;;;;332.70;90.60;;;;;;;-11.22;60.45;102498.65;679756;1262;140791;-82
2024/01/08 22:00:02;;;;;;;290.40;86.80;;;;;;;-11.33;60.77;102517.52;680920;1262;140226;-82
2024/01/08 22:15:12;;;;;;;260.10;83.70;;;;;;;-11.30;60.68;102524.39;679851;1263;140866;-82
2024/01/08 22:30:16;;;;;;;171.80;48.90;;;;;;;-11.80;60.65;102529.04;680639;1262;141605;-81
2024/01/08 22:45:20;;;;;;;189.40;52.90;;;;;;;-11.49;61.20;102539.38;678314;1268;141047;-81
2024/01/08 23:00:24;;;;;;;252.10;77.10;;;;;;;-11.31;61.07;102538.23;675921;1259;141015;-81
2024/01/08 23:15:29;;;;;;;192.90;57.90;;;;;;;-11.42;61.11;102540.17;677349;1264;141082;-81
2024/01/08 23:30:32;;;;;;;182.80;48.90;;;;;;;-11.12;61.28;102533.88;680746;1263;139965;-81
2024/01/08 23:45:36;;;;;;;146.00;42.40;;;;;;;-11.16;61.09;102530.48;677567;1265;142587;-81
